HLTD

Ghadames East Airport

Ghadames, Libya
TAF HLTD 191100Z 1912/2012 23015KT 8000 NSC PROB30 TEMPO 1912/1918 3000 BLSA BECMG 2006/2008 26008KT
Issued Valid From Valid To
Nov-19 @ 11:00 UTC
(11 hours ago)
Nov-19 @ 12:00 UTC
(10 hours ago)
Nov-20 @ 12:00 UTC
(in 14 hours)
Nov-19 @ 12:00 to Nov-20 @ 06:00
TAF HLTD 191100Z 1912/2012 23015KT 8000 NSC
Wind Visibility Clouds
230° at 15 knots 7,998 meters
  • No significant clouds
Expired Click to View Nov-19 @ 12:00 to Nov-19 @ 18:00
PROB30 TEMPO 1912/1918 3000 BLSA
Visibility Conditions
2,993 meters
  • Blowing
  • Sand
Becoming Nov-20 @ 06:00 to Nov-20 @ 12:00
BECMG 2006/2008 26008KT
Wind Visibility Clouds
260° at 8 knots 7,998 meters
  • No significant clouds
TAF HLTD 191100Z 1912/2012 23015KT 8000 NSC PROB30 TEMPO 1912/1918 3000 BLSA BECMG 2006/2008 26008KT
Issued Nov-19 @ 11:00 UTC
(11 hours ago)
Valid From Nov-19 @ 12:00 UTC
(10 hours ago)
Valid To Nov-20 @ 12:00 UTC
(in 14 hours)
Nov-19 @ 12:00 - Nov-20 @ 06:00
Wind Visibility
230° at 15 knots 7,998 meters
Clouds
  • No significant clouds
Nov-19 @ 12:00 - Nov-19 @ 18:00
Conditions
  • Blowing
  • Sand
Becoming Nov-20 @ 06:00 - Nov-20 @ 12:00
Wind Visibility
260° at 8 knots 7,998 meters
Clouds
  • No significant clouds